createdAt,value
2024-02-01T00:02:03.956Z,64.20
2024-02-01T00:04:34.197Z,64.20
2024-02-01T00:07:04.675Z,64.30
2024-02-01T00:09:35.279Z,64.20
2024-02-01T00:12:06.133Z,64.40
2024-02-01T00:14:36.617Z,64.40
2024-02-01T00:17:08.694Z,64.80
2024-02-01T00:19:39.038Z,64.60
2024-02-01T00:22:16.391Z,64.80
2024-02-01T00:24:55.972Z,64.70
2024-02-01T00:27:26.344Z,64.80
2024-02-01T00:29:56.742Z,64.90
2024-02-01T00:32:27.125Z,65.00
2024-02-01T00:34:57.709Z,64.90
2024-02-01T00:37:28.036Z,64.90
2024-02-01T00:39:58.333Z,65.10
2024-02-01T00:42:28.887Z,65.00
2024-02-01T00:44:59.347Z,65.00
2024-02-01T00:47:29.701Z,65.30
2024-02-01T00:50:00.062Z,65.50
2024-02-01T00:52:30.658Z,65.50
2024-02-01T00:55:01.130Z,65.30
2024-02-01T00:57:31.452Z,65.50
2024-02-01T01:00:01.950Z,65.60
2024-02-01T01:02:32.356Z,65.40
2024-02-01T01:05:02.727Z,65.40
2024-02-01T01:07:33.108Z,65.30
2024-02-01T01:10:03.526Z,65.20
2024-02-01T01:12:33.911Z,65.20
2024-02-01T01:15:04.307Z,65.10
2024-02-01T01:17:34.983Z,65.10
2024-02-01T01:20:08.070Z,65.20
2024-02-01T01:22:38.705Z,65.00
2024-02-01T01:25:09.808Z,65.00
2024-02-01T01:27:40.054Z,65.00
2024-02-01T01:30:11.302Z,65.10
2024-02-01T01:32:42.041Z,65.00
2024-02-01T01:35:12.685Z,65.00
2024-02-01T01:37:42.999Z,65.20
2024-02-01T01:40:13.678Z,65.30
2024-02-01T01:42:50.763Z,65.30
2024-02-01T01:45:21.564Z,65.30
2024-02-01T01:47:52.033Z,65.40
2024-02-01T01:50:23.906Z,65.40
2024-02-01T01:52:55.584Z,65.60
2024-02-01T01:55:26.090Z,65.60
2024-02-01T01:57:57.012Z,65.70
2024-02-01T02:00:29.690Z,65.60
2024-02-01T02:03:00.705Z,65.60
2024-02-01T02:05:31.550Z,65.60
2024-02-01T02:08:01.989Z,65.50
2024-02-01T02:10:33.808Z,65.40
2024-02-01T02:13:05.178Z,65.30
2024-02-01T02:15:36.430Z,65.30
2024-02-01T02:18:13.111Z,65.20
2024-02-01T02:20:47.534Z,65.20
2024-02-01T02:23:18.360Z,65.20
2024-02-01T02:25:51.767Z,65.20
2024-02-01T02:28:23.997Z,65.10
2024-02-01T02:30:54.327Z,65.20
2024-02-01T02:33:24.691Z,65.10
2024-02-01T02:35:55.233Z,65.10
2024-02-01T02:38:29.148Z,65.00
2024-02-01T02:40:59.449Z,65.00
2024-02-01T02:43:29.766Z,64.90
2024-02-01T02:46:00.049Z,65.00
2024-02-01T02:48:30.560Z,64.90
2024-02-01T02:51:01.069Z,64.90
2024-02-01T02:53:31.427Z,64.90
2024-02-01T02:56:02.602Z,64.90
2024-02-01T02:58:32.872Z,64.90
2024-02-01T03:01:03.334Z,64.90
2024-02-01T03:03:33.863Z,64.90
2024-02-01T03:06:04.415Z,64.80
2024-02-01T03:08:34.840Z,64.80
2024-02-01T03:11:05.374Z,64.80
2024-02-01T03:13:35.967Z,64.80
2024-02-01T03:16:08.201Z,64.80
2024-02-01T03:18:38.644Z,64.80
2024-02-01T03:21:12.616Z,64.80
2024-02-01T03:23:47.465Z,64.70
2024-02-01T03:26:20.359Z,64.80
2024-02-01T03:28:51.436Z,64.80
2024-02-01T03:31:22.354Z,64.80
2024-02-01T03:33:52.786Z,64.70
2024-02-01T03:36:23.240Z,64.70
2024-02-01T03:38:53.543Z,65.30
2024-02-01T03:41:24.066Z,64.60
2024-02-01T03:43:54.462Z,64.60
2024-02-01T03:46:26.082Z,64.50
2024-02-01T03:48:56.729Z,64.50
2024-02-01T03:51:27.176Z,64.50
2024-02-01T03:53:57.534Z,64.50
2024-02-01T03:56:29.195Z,64.50
2024-02-01T03:59:02.732Z,64.50
2024-02-01T04:01:33.828Z,64.50
2024-02-01T04:04:08.468Z,64.50
2024-02-01T04:06:41.735Z,64.60
2024-02-01T04:09:12.333Z,64.90
2024-02-01T04:11:42.796Z,65.20
2024-02-01T04:14:13.237Z,65.40
2024-02-01T04:16:44.349Z,65.50
2024-02-01T04:19:16.106Z,65.90
2024-02-01T04:21:51.091Z,66.00
2024-02-01T04:24:21.463Z,66.20
2024-02-01T04:26:52.916Z,66.30
2024-02-01T04:29:24.017Z,66.40
2024-02-01T04:31:56.980Z,66.40
2024-02-01T04:34:28.094Z,66.50
2024-02-01T04:36:59.112Z,66.50
2024-02-01T04:39:31.277Z,66.70
2024-02-01T04:42:22.628Z,66.50
2024-02-01T04:44:53.387Z,66.40
2024-02-01T04:47:23.840Z,66.40
2024-02-01T04:49:54.898Z,66.60
2024-02-01T04:52:25.305Z,66.50
2024-02-01T04:54:56.231Z,66.40
2024-02-01T04:57:27.263Z,66.20
2024-02-01T04:59:57.782Z,66.10
2024-02-01T05:02:28.380Z,66.10
2024-02-01T05:04:58.743Z,66.00
2024-02-01T05:07:29.858Z,65.80
2024-02-01T05:10:00.181Z,65.60
2024-02-01T05:12:30.714Z,65.50
2024-02-01T05:15:03.679Z,65.30
2024-02-01T05:17:34.133Z,65.20
2024-02-01T05:20:11.385Z,65.10
2024-02-01T05:22:42.535Z,65.10
2024-02-01T05:25:19.039Z,65.00
2024-02-01T05:27:54.150Z,64.90
2024-02-01T05:30:25.742Z,64.90
2024-02-01T05:32:57.419Z,64.80
2024-02-01T05:35:36.570Z,64.80
2024-02-01T05:38:09.495Z,64.70
2024-02-01T05:40:40.539Z,64.70
2024-02-01T05:43:15.432Z,64.60
2024-02-01T05:45:45.735Z,64.60
2024-02-01T05:48:16.117Z,64.60
2024-02-01T05:50:46.560Z,64.50
2024-02-01T05:53:16.799Z,64.50
2024-02-01T05:55:49.126Z,65.20
2024-02-01T05:58:19.325Z,64.40
2024-02-01T06:00:49.653Z,64.30
2024-02-01T06:03:19.971Z,64.30
2024-02-01T06:05:51.895Z,64.20
2024-02-01T06:08:27.876Z,64.20
2024-02-01T06:10:58.133Z,64.20
2024-02-01T06:13:28.326Z,64.20
2024-02-01T06:15:58.542Z,64.20
2024-02-01T06:18:29.062Z,64.10
2024-02-01T06:20:59.589Z,64.10
2024-02-01T06:23:29.809Z,64.10
2024-02-01T06:26:00.180Z,64.00
2024-02-01T06:28:30.374Z,64.00
2024-02-01T06:31:00.751Z,63.80
2024-02-01T06:33:34.251Z,63.90
2024-02-01T06:36:04.553Z,64.00
2024-02-01T06:38:47.977Z,64.00
2024-02-01T06:41:30.694Z,64.20
2024-02-01T06:44:23.829Z,64.20
2024-02-01T06:47:01.587Z,64.20
2024-02-01T06:49:40.285Z,64.30
2024-02-01T06:52:37.087Z,64.30
2024-02-01T06:55:13.275Z,64.90
2024-02-01T06:58:01.892Z,64.10
2024-02-01T07:00:55.943Z,64.00
2024-02-01T07:03:29.618Z,64.00
2024-02-01T07:06:10.992Z,63.90
2024-02-01T07:08:42.361Z,63.90
2024-02-01T07:11:15.911Z,63.80
2024-02-01T07:13:56.434Z,63.80
2024-02-01T07:16:41.998Z,63.80
2024-02-01T07:19:24.238Z,64.10
2024-02-01T07:22:09.148Z,63.70
2024-02-01T07:24:55.552Z,63.70
2024-02-01T07:27:45.072Z,63.60
2024-02-01T07:30:34.229Z,63.60
2024-02-01T07:33:39.500Z,63.70
2024-02-01T07:36:27.686Z,63.70
2024-02-01T07:39:15.880Z,63.80
2024-02-01T07:42:04.074Z,63.70
2024-02-01T07:44:52.171Z,63.70
2024-02-01T07:47:40.616Z,63.70
2024-02-01T07:50:28.966Z,63.70
2024-02-01T07:53:17.053Z,63.60
2024-02-01T07:56:22.391Z,63.60
2024-02-01T07:58:55.424Z,63.50
2024-02-01T08:01:27.307Z,63.50
2024-02-01T08:04:19.505Z,63.40
2024-02-01T08:07:07.994Z,63.50
2024-02-01T08:09:38.342Z,63.50
2024-02-01T08:12:09.040Z,63.40
2024-02-01T08:14:39.271Z,63.40
2024-02-01T08:17:11.413Z,63.40
2024-02-01T08:19:42.036Z,63.30
2024-02-01T08:22:13.048Z,63.40
2024-02-01T08:24:43.829Z,63.30
2024-02-01T08:27:17.050Z,63.40
2024-02-01T08:29:47.705Z,63.40
2024-02-01T08:32:22.255Z,63.40
2024-02-01T08:34:52.721Z,63.40
2024-02-01T08:37:22.932Z,63.40
2024-02-01T08:39:53.207Z,63.40
2024-02-01T08:42:23.719Z,63.40
2024-02-01T08:44:53.993Z,63.40
2024-02-01T08:47:26.667Z,63.50
2024-02-01T08:49:59.078Z,63.50
2024-02-01T08:52:29.294Z,63.40
2024-02-01T08:54:59.598Z,63.40
2024-02-01T08:57:29.928Z,63.40
2024-02-01T09:00:00.375Z,63.40
2024-02-01T09:02:30.688Z,63.40
2024-02-01T09:05:01.156Z,63.40
2024-02-01T09:07:37.167Z,63.40
2024-02-01T09:10:14.999Z,63.40
2024-02-01T09:12:48.961Z,63.20
2024-02-01T09:15:19.486Z,63.30
2024-02-01T09:17:50.388Z,63.20
2024-02-01T09:20:21.587Z,63.20
2024-02-01T09:22:56.216Z,63.10
2024-02-01T09:25:28.192Z,63.10
2024-02-01T09:27:59.441Z,63.10
2024-02-01T09:30:31.217Z,63.10
2024-02-01T09:33:02.642Z,63.10
2024-02-01T09:35:33.690Z,63.00
2024-02-01T09:38:04.011Z,63.00
2024-02-01T09:40:34.961Z,63.10
2024-02-01T09:43:05.524Z,63.00
2024-02-01T09:45:38.256Z,63.00
2024-02-01T09:48:10.079Z,63.00
2024-02-01T09:50:42.348Z,63.00
2024-02-01T09:53:12.564Z,63.00
2024-02-01T09:55:42.801Z,63.00
2024-02-01T09:58:13.222Z,62.90
2024-02-01T10:00:43.482Z,63.00
2024-02-01T10:03:18.867Z,63.00
2024-02-01T10:05:50.330Z,62.80
2024-02-01T10:08:21.704Z,62.90
2024-02-01T10:10:52.174Z,62.80
2024-02-01T10:13:33.669Z,62.80
2024-02-01T10:16:04.793Z,62.80
2024-02-01T10:18:35.204Z,62.80
2024-02-01T10:21:31.910Z,62.80
2024-02-01T10:24:08.999Z,62.80
2024-02-01T10:26:40.194Z,62.80
2024-02-01T10:29:11.765Z,62.80
2024-02-01T10:31:46.562Z,62.80
2024-02-01T10:34:18.576Z,62.70
2024-02-01T10:36:51.349Z,62.70
2024-02-01T10:39:30.654Z,62.70
2024-02-01T10:42:06.458Z,62.70
2024-02-01T10:44:38.940Z,62.70
2024-02-01T10:47:16.367Z,62.80
2024-02-01T10:49:57.281Z,62.70
2024-02-01T10:52:30.221Z,62.70
2024-02-01T10:55:00.623Z,62.70
2024-02-01T10:57:31.546Z,62.70
2024-02-01T11:00:01.969Z,62.70
2024-02-01T11:02:33.729Z,62.70
2024-02-01T11:05:11.367Z,63.00
2024-02-01T11:07:41.889Z,62.60
2024-02-01T11:10:17.879Z,62.70
2024-02-01T11:12:57.965Z,62.60
2024-02-01T11:15:29.989Z,62.60
2024-02-01T11:18:11.854Z,62.60
2024-02-01T11:20:42.584Z,62.60
2024-02-01T11:23:19.428Z,62.70
2024-02-01T11:25:51.885Z,62.70
2024-02-01T11:28:33.145Z,62.70
2024-02-01T11:31:13.608Z,62.30
2024-02-01T11:33:47.926Z,63.00
2024-02-01T11:36:18.827Z,61.70
2024-02-01T11:38:55.894Z,61.10
2024-02-01T11:41:26.371Z,60.00
2024-02-01T11:43:56.906Z,59.50
2024-02-01T11:46:28.243Z,59.10
2024-02-01T11:49:00.405Z,58.70
2024-02-01T11:51:31.369Z,58.40
2024-02-01T11:54:02.483Z,58.50
2024-02-01T11:56:35.223Z,58.30
2024-02-01T11:59:07.284Z,58.20
2024-02-01T12:01:37.650Z,58.00
2024-02-01T12:04:10.270Z,58.40
2024-02-01T12:06:46.728Z,57.80
2024-02-01T12:09:17.773Z,57.80
2024-02-01T12:11:48.679Z,57.50
2024-02-01T12:14:24.314Z,57.30
2024-02-01T12:16:58.492Z,57.30
2024-02-01T12:19:30.872Z,57.10
2024-02-01T12:22:01.318Z,56.90
2024-02-01T12:24:34.098Z,56.70
2024-02-01T12:27:13.837Z,56.50
2024-02-01T12:29:44.922Z,56.20
2024-02-01T12:32:15.187Z,56.40
2024-02-01T12:34:45.601Z,56.40
2024-02-01T12:37:17.679Z,56.40
2024-02-01T12:39:48.304Z,56.20
2024-02-01T12:42:19.039Z,56.20
2024-02-01T12:44:51.431Z,56.10
2024-02-01T12:47:22.727Z,55.90
2024-02-01T12:49:54.125Z,56.00
2024-02-01T12:52:24.383Z,55.80
2024-02-01T12:54:54.861Z,55.70
2024-02-01T12:57:25.192Z,55.50
2024-02-01T12:59:56.226Z,55.40
2024-02-01T13:02:26.558Z,55.50
2024-02-01T13:04:57.549Z,55.60
2024-02-01T13:07:28.339Z,55.50
2024-02-01T13:09:59.749Z,55.40
2024-02-01T13:12:30.656Z,55.50
2024-02-01T13:15:03.260Z,55.40
2024-02-01T13:17:38.441Z,55.40
2024-02-01T13:20:22.151Z,55.40
2024-02-01T13:22:53.897Z,55.30
2024-02-01T13:25:27.340Z,55.10
2024-02-01T13:27:57.774Z,55.00
2024-02-01T13:30:29.453Z,55.00
2024-02-01T13:33:03.516Z,55.00
2024-02-01T13:35:37.039Z,55.00
2024-02-01T13:38:14.229Z,55.00
2024-02-01T13:40:47.398Z,54.90
2024-02-01T13:43:17.709Z,55.10
2024-02-01T13:45:48.511Z,55.20
2024-02-01T13:48:19.033Z,55.30
2024-02-01T13:50:49.529Z,55.30
2024-02-01T13:53:22.640Z,55.40
2024-02-01T13:55:52.907Z,55.50
2024-02-01T13:58:23.148Z,55.40
2024-02-01T14:00:58.753Z,55.30
2024-02-01T14:03:30.123Z,55.30
2024-02-01T14:06:01.105Z,55.10
2024-02-01T14:08:33.461Z,55.20
2024-02-01T14:11:05.511Z,55.20
2024-02-01T14:13:36.331Z,55.30
2024-02-01T14:16:10.488Z,55.80
2024-02-01T14:18:40.921Z,55.30
2024-02-01T14:21:11.978Z,55.30
2024-02-01T14:23:42.273Z,55.30
2024-02-01T14:26:13.528Z,55.30
2024-02-01T14:28:43.809Z,55.10
2024-02-01T14:31:14.185Z,55.00
2024-02-01T14:33:44.696Z,55.00
2024-02-01T14:36:15.359Z,54.90
2024-02-01T14:38:45.733Z,55.00
2024-02-01T14:41:16.740Z,54.90
2024-02-01T14:43:47.095Z,54.90
2024-02-01T14:46:17.551Z,54.80
2024-02-01T14:48:47.936Z,54.80
2024-02-01T14:51:18.491Z,54.70
2024-02-01T14:53:48.816Z,54.80
2024-02-01T14:56:19.151Z,54.80
2024-02-01T14:58:49.383Z,54.80
2024-02-01T15:01:22.375Z,54.80
2024-02-01T15:03:56.608Z,54.70
2024-02-01T15:06:28.614Z,54.70
2024-02-01T15:09:05.436Z,54.70
2024-02-01T15:11:37.016Z,54.70
2024-02-01T15:14:07.350Z,54.80
2024-02-01T15:16:38.406Z,54.80
2024-02-01T15:19:11.999Z,54.80
2024-02-01T15:21:42.588Z,54.70
2024-02-01T15:24:16.961Z,54.70
2024-02-01T15:26:47.708Z,54.70
2024-02-01T15:29:19.441Z,54.60
2024-02-01T15:31:49.885Z,54.60
2024-02-01T15:34:21.074Z,54.60
2024-02-01T15:36:51.763Z,54.50
2024-02-01T15:39:22.160Z,54.50
2024-02-01T15:41:52.885Z,54.50
2024-02-01T15:44:23.202Z,54.50
2024-02-01T15:46:53.545Z,54.40
2024-02-01T15:49:25.056Z,54.50
2024-02-01T15:52:02.075Z,54.50
2024-02-01T15:54:32.875Z,54.50
2024-02-01T15:57:03.429Z,54.50
2024-02-01T15:59:33.917Z,54.50
2024-02-01T16:02:04.223Z,54.50
2024-02-01T16:04:36.171Z,54.40
2024-02-01T16:07:06.831Z,54.30
2024-02-01T16:09:43.188Z,54.30
2024-02-01T16:12:22.679Z,54.20
2024-02-01T16:14:53.075Z,54.20
2024-02-01T16:17:23.759Z,54.20
2024-02-01T16:19:54.820Z,54.10
2024-02-01T16:22:48.986Z,54.20
2024-02-01T16:25:41.176Z,54.20
2024-02-01T16:28:27.116Z,54.10
2024-02-01T16:31:12.905Z,54.20
2024-02-01T16:34:13.921Z,54.10
2024-02-01T16:36:54.176Z,54.20
2024-02-01T16:39:36.429Z,54.20
2024-02-01T16:42:25.332Z,54.20
2024-02-01T16:45:02.959Z,54.10
2024-02-01T16:47:47.617Z,54.20
2024-02-01T16:50:19.015Z,54.20
2024-02-01T16:53:04.048Z,54.30
2024-02-01T16:55:44.214Z,54.20
2024-02-01T16:58:46.934Z,54.10
2024-02-01T17:01:32.815Z,54.10
2024-02-01T17:04:05.249Z,54.20
2024-02-01T17:06:37.231Z,54.80
2024-02-01T17:09:09.349Z,54.20
2024-02-01T17:11:40.400Z,54.10
2024-02-01T17:14:19.975Z,54.20
2024-02-01T17:17:37.363Z,54.10
2024-02-01T17:20:13.275Z,54.10
2024-02-01T17:22:44.968Z,54.20
2024-02-01T17:25:51.714Z,54.20
2024-02-01T17:28:41.594Z,54.00
2024-02-01T17:31:18.417Z,54.20
2024-02-01T17:34:02.476Z,54.10
2024-02-01T17:36:42.745Z,54.70
2024-02-01T17:39:23.962Z,54.10
2024-02-01T17:41:57.558Z,54.10
2024-02-01T17:44:42.725Z,54.70
2024-02-01T17:47:13.267Z,54.10
2024-02-01T17:49:53.101Z,54.10
2024-02-01T17:52:48.434Z,54.00
2024-02-01T17:55:40.278Z,54.00
2024-02-01T17:58:50.507Z,54.00
2024-02-01T18:01:25.552Z,54.10
2024-02-01T18:04:01.780Z,54.10
2024-02-01T18:06:44.786Z,54.10
2024-02-01T18:09:36.551Z,54.10
2024-02-01T18:12:12.097Z,54.10
2024-02-01T18:14:42.598Z,54.20
2024-02-01T18:17:29.860Z,54.00
2024-02-01T18:20:02.093Z,54.00
2024-02-01T18:22:32.652Z,54.00
2024-02-01T18:25:03.054Z,54.00
2024-02-01T18:27:33.832Z,54.00
2024-02-01T18:30:05.069Z,54.00
2024-02-01T18:32:37.037Z,54.00
2024-02-01T18:35:36.887Z,54.00
2024-02-01T18:38:29.383Z,53.90
2024-02-01T18:40:59.635Z,54.00
2024-02-01T18:43:32.097Z,54.10
2024-02-01T18:46:04.995Z,54.00
2024-02-01T18:48:38.357Z,54.00
2024-02-01T18:51:15.686Z,54.00
2024-02-01T18:53:51.446Z,54.00
2024-02-01T18:56:31.063Z,54.00
2024-02-01T18:59:02.009Z,54.00
2024-02-01T19:01:36.209Z,54.00
2024-02-01T19:04:19.467Z,54.00
2024-02-01T19:06:53.176Z,54.00
2024-02-01T19:09:23.807Z,54.30
2024-02-01T19:11:59.788Z,54.30
2024-02-01T19:14:36.496Z,53.70
2024-02-01T19:17:25.161Z,53.40
2024-02-01T19:19:55.998Z,53.30
2024-02-01T19:22:38.153Z,53.20
2024-02-01T19:25:09.895Z,53.20
2024-02-01T19:27:42.114Z,53.10
2024-02-01T19:30:47.852Z,53.10
2024-02-01T19:33:26.946Z,52.70
2024-02-01T19:35:57.782Z,53.10
2024-02-01T19:38:32.742Z,53.20
2024-02-01T19:41:03.354Z,53.00
2024-02-01T19:43:34.803Z,53.10
2024-02-01T19:46:05.449Z,53.00
2024-02-01T19:48:35.827Z,53.20
2024-02-01T19:51:06.538Z,53.10
2024-02-01T19:53:36.837Z,53.10
2024-02-01T19:56:07.652Z,53.10
2024-02-01T19:58:37.896Z,53.00
2024-02-01T20:01:08.526Z,53.10
2024-02-01T20:03:38.866Z,53.20
2024-02-01T20:06:10.508Z,53.30
2024-02-01T20:08:40.997Z,53.30
2024-02-01T20:11:15.041Z,53.40
2024-02-01T20:13:46.021Z,53.30
2024-02-01T20:16:17.007Z,54.00
2024-02-01T20:18:47.536Z,53.50
2024-02-01T20:21:19.284Z,53.60
2024-02-01T20:23:49.723Z,53.70
2024-02-01T20:26:20.231Z,53.70
2024-02-01T20:29:01.330Z,53.90
2024-02-01T20:31:39.408Z,54.10
2024-02-01T20:34:26.186Z,54.00
2024-02-01T20:37:04.345Z,54.00
2024-02-01T20:39:39.729Z,54.20
2024-02-01T20:42:26.133Z,54.30
2024-02-01T20:44:58.639Z,54.30
2024-02-01T20:47:42.739Z,54.20
2024-02-01T20:50:41.758Z,53.70
2024-02-01T20:53:21.260Z,53.70
2024-02-01T20:55:54.641Z,53.10
2024-02-01T20:58:38.211Z,53.20
2024-02-01T21:01:08.538Z,53.60
2024-02-01T21:03:39.138Z,53.90
2024-02-01T21:06:09.854Z,53.90
2024-02-01T21:08:41.561Z,54.10
2024-02-01T21:11:51.575Z,54.10
2024-02-01T21:14:48.016Z,53.70
2024-02-01T21:17:28.297Z,53.10
2024-02-01T21:20:00.630Z,53.30
2024-02-01T21:22:38.907Z,53.10
2024-02-01T21:25:40.698Z,53.20
2024-02-01T21:28:20.237Z,53.20
2024-02-01T21:30:51.864Z,54.00
2024-02-01T21:33:22.848Z,54.70
2024-02-01T21:36:00.517Z,55.30
2024-02-01T21:38:31.958Z,55.70
2024-02-01T21:41:03.054Z,55.90
2024-02-01T21:43:33.647Z,55.90
2024-02-01T21:46:04.277Z,55.80
2024-02-01T21:48:34.827Z,56.00
2024-02-01T21:51:05.749Z,56.10
2024-02-01T21:53:36.113Z,56.20
2024-02-01T21:56:06.991Z,56.30
2024-02-01T21:58:37.263Z,56.60
2024-02-01T22:01:08.500Z,56.20
2024-02-01T22:03:38.891Z,56.10
2024-02-01T22:06:09.462Z,56.30
2024-02-01T22:08:39.763Z,56.10
2024-02-01T22:11:10.276Z,56.40
2024-02-01T22:13:45.172Z,57.00
2024-02-01T22:16:16.104Z,58.10
2024-02-01T22:18:46.446Z,58.40
2024-02-01T22:21:16.850Z,58.50
2024-02-01T22:23:50.306Z,58.90
2024-02-01T22:26:20.698Z,59.10
2024-02-01T22:28:51.348Z,59.20
2024-02-01T22:31:21.841Z,59.30
2024-02-01T22:33:52.486Z,59.30
2024-02-01T22:36:22.910Z,60.00
2024-02-01T22:38:53.212Z,59.30
2024-02-01T22:41:24.026Z,59.30
2024-02-01T22:43:55.620Z,59.30
2024-02-01T22:46:26.201Z,59.40
2024-02-01T22:48:56.994Z,59.40
2024-02-01T22:51:27.982Z,59.40
2024-02-01T22:53:58.944Z,59.40
2024-02-01T22:56:29.454Z,59.90
2024-02-01T22:59:01.123Z,59.40
2024-02-01T23:01:31.619Z,59.50
2024-02-01T23:04:02.237Z,59.50
2024-02-01T23:06:34.613Z,59.60
2024-02-01T23:09:06.600Z,59.80
2024-02-01T23:11:38.598Z,59.90
2024-02-01T23:14:09.077Z,60.10
2024-02-01T23:16:39.995Z,60.20
2024-02-01T23:19:10.608Z,60.10
2024-02-01T23:21:41.696Z,60.20
2024-02-01T23:24:12.550Z,60.30
2024-02-01T23:26:42.931Z,60.30
2024-02-01T23:29:13.360Z,60.30
2024-02-01T23:31:43.831Z,60.30
2024-02-01T23:34:14.526Z,61.10
2024-02-01T23:36:44.910Z,60.30
2024-02-01T23:39:15.155Z,60.40
2024-02-01T23:41:45.487Z,60.40
2024-02-01T23:44:15.762Z,60.30
2024-02-01T23:46:46.303Z,60.20
2024-02-01T23:49:16.657Z,60.20
2024-02-01T23:51:47.090Z,60.10
2024-02-01T23:54:17.389Z,60.10
2024-02-01T23:56:48.070Z,60.10
2024-02-01T23:59:18.333Z,60.10
